sensor_id;sensor_type;location;lat;lon;timestamp;P1;durP1;ratioP1;P2;durP2;ratioP2
7971;SDS011;4031;49.758;6.120;2023-08-31T00:00:48;7.00;;;4.23;;
7971;SDS011;4031;49.758;6.120;2023-08-31T00:03:16;8.77;;;4.13;;
7971;SDS011;4031;49.758;6.120;2023-08-31T00:05:42;8.60;;;4.13;;
7971;SDS011;4031;49.758;6.120;2023-08-31T00:08:08;6.77;;;3.70;;
7971;SDS011;4031;49.758;6.120;2023-08-31T00:10:36;5.10;;;3.70;;
7971;SDS011;4031;49.758;6.120;2023-08-31T00:13:02;8.67;;;4.70;;
7971;SDS011;4031;49.758;6.120;2023-08-31T00:15:30;5.00;;;3.97;;
7971;SDS011;4031;49.758;6.120;2023-08-31T00:17:58;8.93;;;4.53;;
7971;SDS011;4031;49.758;6.120;2023-08-31T00:20:24;9.27;;;4.77;;
7971;SDS011;4031;49.758;6.120;2023-08-31T00:22:51;9.43;;;4.40;;
7971;SDS011;4031;49.758;6.120;2023-08-31T00:25:17;9.00;;;3.93;;
7971;SDS011;4031;49.758;6.120;2023-08-31T00:27:43;6.53;;;4.20;;
7971;SDS011;4031;49.758;6.120;2023-08-31T00:30:12;8.50;;;4.20;;
7971;SDS011;4031;49.758;6.120;2023-08-31T00:32:39;7.93;;;4.20;;
7971;SDS011;4031;49.758;6.120;2023-08-31T00:35:08;5.53;;;4.43;;
7971;SDS011;4031;49.758;6.120;2023-08-31T00:37:34;9.67;;;4.50;;
7971;SDS011;4031;49.758;6.120;2023-08-31T00:40:00;6.03;;;3.50;;
7971;SDS011;4031;49.758;6.120;2023-08-31T00:42:29;5.03;;;3.70;;
7971;SDS011;4031;49.758;6.120;2023-08-31T00:44:55;5.47;;;3.67;;
7971;SDS011;4031;49.758;6.120;2023-08-31T00:47:21;7.57;;;4.20;;
7971;SDS011;4031;49.758;6.120;2023-08-31T00:49:47;4.60;;;3.43;;
7971;SDS011;4031;49.758;6.120;2023-08-31T00:52:14;8.50;;;4.30;;
7971;SDS011;4031;49.758;6.120;2023-08-31T00:54:40;6.30;;;4.13;;
7971;SDS011;4031;49.758;6.120;2023-08-31T00:57:07;9.43;;;4.27;;
7971;SDS011;4031;49.758;6.120;2023-08-31T00:59:34;7.30;;;4.20;;
7971;SDS011;4031;49.758;6.120;2023-08-31T01:02:11;7.97;;;4.50;;
7971;SDS011;4031;49.758;6.120;2023-08-31T01:05:11;7.80;;;4.37;;
7971;SDS011;4031;49.758;6.120;2023-08-31T01:13:37;6.80;;;3.53;;
7971;SDS011;4031;49.758;6.120;2023-08-31T01:16:06;7.47;;;4.10;;
7971;SDS011;4031;49.758;6.120;2023-08-31T01:18:33;9.37;;;4.13;;
7971;SDS011;4031;49.758;6.120;2023-08-31T01:26:18;8.97;;;3.70;;
7971;SDS011;4031;49.758;6.120;2023-08-31T01:28:45;12.83;;;3.70;;
7971;SDS011;4031;49.758;6.120;2023-08-31T01:31:13;9.53;;;4.10;;
7971;SDS011;4031;49.758;6.120;2023-08-31T01:33:40;7.70;;;4.20;;
7971;SDS011;4031;49.758;6.120;2023-08-31T01:36:07;5.83;;;3.67;;
7971;SDS011;4031;49.758;6.120;2023-08-31T01:38:42;8.27;;;3.70;;
7971;SDS011;4031;49.758;6.120;2023-08-31T01:41:10;7.67;;;4.00;;
7971;SDS011;4031;49.758;6.120;2023-08-31T01:43:42;7.77;;;4.03;;
7971;SDS011;4031;49.758;6.120;2023-08-31T01:46:09;8.23;;;3.60;;
7971;SDS011;4031;49.758;6.120;2023-08-31T01:48:41;10.90;;;4.10;;
7971;SDS011;4031;49.758;6.120;2023-08-31T01:51:08;7.20;;;3.60;;
7971;SDS011;4031;49.758;6.120;2023-08-31T01:53:34;6.83;;;3.70;;
7971;SDS011;4031;49.758;6.120;2023-08-31T01:56:00;6.03;;;3.80;;
7971;SDS011;4031;49.758;6.120;2023-08-31T01:58:27;5.63;;;3.70;;
7971;SDS011;4031;49.758;6.120;2023-08-31T02:00:53;6.33;;;4.33;;
7971;SDS011;4031;49.758;6.120;2023-08-31T02:03:18;5.13;;;3.73;;
7971;SDS011;4031;49.758;6.120;2023-08-31T02:05:44;9.03;;;3.90;;
7971;SDS011;4031;49.758;6.120;2023-08-31T02:08:10;6.40;;;3.30;;
7971;SDS011;4031;49.758;6.120;2023-08-31T02:10:35;8.37;;;3.83;;
7971;SDS011;4031;49.758;6.120;2023-08-31T02:13:01;5.50;;;3.30;;
7971;SDS011;4031;49.758;6.120;2023-08-31T02:15:27;8.03;;;3.50;;
7971;SDS011;4031;49.758;6.120;2023-08-31T02:17:53;8.33;;;3.63;;
7971;SDS011;4031;49.758;6.120;2023-08-31T02:20:19;4.33;;;2.93;;
7971;SDS011;4031;49.758;6.120;2023-08-31T02:22:45;12.17;;;3.70;;
7971;SDS011;4031;49.758;6.120;2023-08-31T02:25:11;7.17;;;3.10;;
7971;SDS011;4031;49.758;6.120;2023-08-31T02:27:38;5.70;;;4.20;;
7971;SDS011;4031;49.758;6.120;2023-08-31T02:30:04;9.73;;;4.50;;
7971;SDS011;4031;49.758;6.120;2023-08-31T02:32:31;7.40;;;4.37;;
7971;SDS011;4031;49.758;6.120;2023-08-31T02:34:56;7.27;;;4.80;;
7971;SDS011;4031;49.758;6.120;2023-08-31T02:37:22;9.63;;;4.87;;
7971;SDS011;4031;49.758;6.120;2023-08-31T02:39:48;14.53;;;5.00;;
7971;SDS011;4031;49.758;6.120;2023-08-31T02:42:14;10.27;;;4.57;;
7971;SDS011;4031;49.758;6.120;2023-08-31T02:44:40;10.50;;;4.73;;
7971;SDS011;4031;49.758;6.120;2023-08-31T02:47:05;11.70;;;5.30;;
7971;SDS011;4031;49.758;6.120;2023-08-31T02:49:31;8.07;;;4.90;;
7971;SDS011;4031;49.758;6.120;2023-08-31T02:51:57;16.40;;;5.00;;
7971;SDS011;4031;49.758;6.120;2023-08-31T02:54:22;9.00;;;5.33;;
7971;SDS011;4031;49.758;6.120;2023-08-31T02:56:48;17.73;;;5.77;;
7971;SDS011;4031;49.758;6.120;2023-08-31T02:59:14;12.30;;;5.30;;
7971;SDS011;4031;49.758;6.120;2023-08-31T03:01:39;16.77;;;6.70;;
7971;SDS011;4031;49.758;6.120;2023-08-31T03:04:05;14.60;;;5.00;;
7971;SDS011;4031;49.758;6.120;2023-08-31T03:06:34;16.93;;;6.60;;
7971;SDS011;4031;49.758;6.120;2023-08-31T03:09:00;12.73;;;6.00;;
7971;SDS011;4031;49.758;6.120;2023-08-31T03:11:26;16.33;;;6.27;;
7971;SDS011;4031;49.758;6.120;2023-08-31T03:13:52;7.57;;;4.67;;
7971;SDS011;4031;49.758;6.120;2023-08-31T03:16:17;19.30;;;5.90;;
7971;SDS011;4031;49.758;6.120;2023-08-31T03:18:43;15.53;;;6.23;;
7971;SDS011;4031;49.758;6.120;2023-08-31T03:21:09;12.17;;;6.73;;
7971;SDS011;4031;49.758;6.120;2023-08-31T03:23:34;10.10;;;6.13;;
7971;SDS011;4031;49.758;6.120;2023-08-31T03:26:06;10.47;;;5.60;;
7971;SDS011;4031;49.758;6.120;2023-08-31T03:28:33;12.60;;;5.77;;
7971;SDS011;4031;49.758;6.120;2023-08-31T03:30:59;12.10;;;5.87;;
7971;SDS011;4031;49.758;6.120;2023-08-31T03:33:26;14.70;;;5.73;;
7971;SDS011;4031;49.758;6.120;2023-08-31T03:35:53;10.57;;;5.63;;
7971;SDS011;4031;49.758;6.120;2023-08-31T03:38:25;12.53;;;6.17;;
7971;SDS011;4031;49.758;6.120;2023-08-31T03:40:54;14.87;;;6.10;;
7971;SDS011;4031;49.758;6.120;2023-08-31T03:43:20;13.00;;;4.70;;
7971;SDS011;4031;49.758;6.120;2023-08-31T03:45:46;12.80;;;5.20;;
7971;SDS011;4031;49.758;6.120;2023-08-31T03:48:12;14.33;;;6.80;;
7971;SDS011;4031;49.758;6.120;2023-08-31T03:50:37;12.20;;;5.40;;
7971;SDS011;4031;49.758;6.120;2023-08-31T03:53:03;20.03;;;5.03;;
7971;SDS011;4031;49.758;6.120;2023-08-31T03:55:29;9.40;;;4.93;;
7971;SDS011;4031;49.758;6.120;2023-08-31T03:57:54;11.50;;;5.40;;
7971;SDS011;4031;49.758;6.120;2023-08-31T04:00:20;11.10;;;5.27;;
7971;SDS011;4031;49.758;6.120;2023-08-31T04:02:46;11.43;;;4.70;;
7971;SDS011;4031;49.758;6.120;2023-08-31T04:05:12;12.23;;;5.40;;
7971;SDS011;4031;49.758;6.120;2023-08-31T04:07:40;13.60;;;5.33;;
7971;SDS011;4031;49.758;6.120;2023-08-31T04:10:06;9.47;;;4.53;;
7971;SDS011;4031;49.758;6.120;2023-08-31T04:12:32;11.50;;;5.33;;
7971;SDS011;4031;49.758;6.120;2023-08-31T04:14:59;10.43;;;4.27;;
7971;SDS011;4031;49.758;6.120;2023-08-31T04:17:25;10.17;;;4.90;;
7971;SDS011;4031;49.758;6.120;2023-08-31T04:19:51;8.40;;;5.17;;
7971;SDS011;4031;49.758;6.120;2023-08-31T04:22:17;8.70;;;4.93;;
7971;SDS011;4031;49.758;6.120;2023-08-31T04:24:42;12.83;;;4.87;;
7971;SDS011;4031;49.758;6.120;2023-08-31T04:27:08;7.83;;;5.00;;
7971;SDS011;4031;49.758;6.120;2023-08-31T04:29:34;12.13;;;4.63;;
7971;SDS011;4031;49.758;6.120;2023-08-31T04:32:00;10.23;;;4.70;;
7971;SDS011;4031;49.758;6.120;2023-08-31T04:34:26;7.83;;;5.13;;
7971;SDS011;4031;49.758;6.120;2023-08-31T04:36:52;9.60;;;4.83;;
7971;SDS011;4031;49.758;6.120;2023-08-31T04:39:17;9.10;;;5.07;;
7971;SDS011;4031;49.758;6.120;2023-08-31T04:41:43;14.27;;;4.53;;
7971;SDS011;4031;49.758;6.120;2023-08-31T04:44:09;11.10;;;5.20;;
7971;SDS011;4031;49.758;6.120;2023-08-31T04:46:36;8.20;;;4.80;;
7971;SDS011;4031;49.758;6.120;2023-08-31T04:49:03;10.40;;;4.20;;
7971;SDS011;4031;49.758;6.120;2023-08-31T04:53:59;13.17;;;4.90;;
7971;SDS011;4031;49.758;6.120;2023-08-31T04:56:29;9.07;;;4.83;;
7971;SDS011;4031;49.758;6.120;2023-08-31T04:58:57;12.30;;;5.07;;
7971;SDS011;4031;49.758;6.120;2023-08-31T05:01:23;14.33;;;4.77;;
7971;SDS011;4031;49.758;6.120;2023-08-31T05:03:49;14.77;;;5.27;;
7971;SDS011;4031;49.758;6.120;2023-08-31T05:06:15;8.87;;;5.30;;
7971;SDS011;4031;49.758;6.120;2023-08-31T05:08:40;7.77;;;4.87;;
7971;SDS011;4031;49.758;6.120;2023-08-31T05:11:06;20.90;;;6.27;;
7971;SDS011;4031;49.758;6.120;2023-08-31T05:13:32;11.93;;;5.40;;
7971;SDS011;4031;49.758;6.120;2023-08-31T05:15:59;14.17;;;5.80;;
7971;SDS011;4031;49.758;6.120;2023-08-31T05:18:24;11.57;;;5.20;;
7971;SDS011;4031;49.758;6.120;2023-08-31T05:20:50;10.70;;;5.20;;
7971;SDS011;4031;49.758;6.120;2023-08-31T05:23:16;8.17;;;4.90;;
7971;SDS011;4031;49.758;6.120;2023-08-31T05:25:44;13.53;;;5.70;;
7971;SDS011;4031;49.758;6.120;2023-08-31T05:28:10;9.40;;;4.60;;
7971;SDS011;4031;49.758;6.120;2023-08-31T05:30:36;11.77;;;5.20;;
7971;SDS011;4031;49.758;6.120;2023-08-31T05:33:02;12.60;;;6.77;;
7971;SDS011;4031;49.758;6.120;2023-08-31T05:35:28;6.77;;;4.50;;
7971;SDS011;4031;49.758;6.120;2023-08-31T05:37:55;8.40;;;4.90;;
7971;SDS011;4031;49.758;6.120;2023-08-31T05:40:21;11.77;;;5.97;;
7971;SDS011;4031;49.758;6.120;2023-08-31T05:42:47;11.87;;;5.53;;
7971;SDS011;4031;49.758;6.120;2023-08-31T05:45:13;12.63;;;5.90;;
7971;SDS011;4031;49.758;6.120;2023-08-31T05:47:40;11.83;;;4.83;;
7971;SDS011;4031;49.758;6.120;2023-08-31T05:50:06;13.87;;;4.87;;
7971;SDS011;4031;49.758;6.120;2023-08-31T05:52:32;8.53;;;5.80;;
7971;SDS011;4031;49.758;6.120;2023-08-31T05:54:58;11.73;;;5.13;;
7971;SDS011;4031;49.758;6.120;2023-08-31T05:57:25;8.33;;;4.60;;
7971;SDS011;4031;49.758;6.120;2023-08-31T05:59:52;8.33;;;5.37;;
7971;SDS011;4031;49.758;6.120;2023-08-31T06:02:18;10.23;;;5.70;;
7971;SDS011;4031;49.758;6.120;2023-08-31T06:04:44;8.67;;;6.37;;
7971;SDS011;4031;49.758;6.120;2023-08-31T06:07:10;8.63;;;5.30;;
7971;SDS011;4031;49.758;6.120;2023-08-31T06:09:35;11.23;;;5.10;;
7971;SDS011;4031;49.758;6.120;2023-08-31T06:12:02;13.03;;;6.27;;
7971;SDS011;4031;49.758;6.120;2023-08-31T06:14:29;11.63;;;5.43;;
7971;SDS011;4031;49.758;6.120;2023-08-31T06:16:55;9.73;;;5.63;;
7971;SDS011;4031;49.758;6.120;2023-08-31T06:19:21;14.00;;;5.70;;
7971;SDS011;4031;49.758;6.120;2023-08-31T06:21:46;15.47;;;6.23;;
7971;SDS011;4031;49.758;6.120;2023-08-31T06:24:13;11.27;;;6.03;;
7971;SDS011;4031;49.758;6.120;2023-08-31T06:26:40;7.50;;;5.17;;
7971;SDS011;4031;49.758;6.120;2023-08-31T06:29:06;10.37;;;4.80;;
7971;SDS011;4031;49.758;6.120;2023-08-31T06:31:34;7.30;;;4.07;;
7971;SDS011;4031;49.758;6.120;2023-08-31T06:34:00;6.17;;;4.50;;
7971;SDS011;4031;49.758;6.120;2023-08-31T06:36:25;6.10;;;4.00;;
7971;SDS011;4031;49.758;6.120;2023-08-31T06:38:51;4.53;;;3.43;;
7971;SDS011;4031;49.758;6.120;2023-08-31T06:41:17;4.10;;;3.17;;
7971;SDS011;4031;49.758;6.120;2023-08-31T06:43:42;4.60;;;3.00;;
7971;SDS011;4031;49.758;6.120;2023-08-31T06:46:08;2.60;;;2.40;;
7971;SDS011;4031;49.758;6.120;2023-08-31T06:48:34;3.17;;;2.43;;
7971;SDS011;4031;49.758;6.120;2023-08-31T06:50:59;3.73;;;2.33;;
7971;SDS011;4031;49.758;6.120;2023-08-31T06:53:28;5.40;;;2.17;;
7971;SDS011;4031;49.758;6.120;2023-08-31T06:55:56;3.73;;;2.77;;
7971;SDS011;4031;49.758;6.120;2023-08-31T06:58:22;3.20;;;2.47;;
7971;SDS011;4031;49.758;6.120;2023-08-31T07:00:48;3.77;;;2.30;;
7971;SDS011;4031;49.758;6.120;2023-08-31T07:03:13;2.63;;;2.40;;
7971;SDS011;4031;49.758;6.120;2023-08-31T07:05:42;2.73;;;2.20;;
7971;SDS011;4031;49.758;6.120;2023-08-31T07:08:08;3.47;;;2.30;;
7971;SDS011;4031;49.758;6.120;2023-08-31T07:10:36;3.20;;;1.70;;
7971;SDS011;4031;49.758;6.120;2023-08-31T07:13:02;3.33;;;1.93;;
7971;SDS011;4031;49.758;6.120;2023-08-31T07:15:29;6.53;;;1.77;;
7971;SDS011;4031;49.758;6.120;2023-08-31T07:17:55;2.17;;;1.53;;
7971;SDS011;4031;49.758;6.120;2023-08-31T07:20:20;2.73;;;1.67;;
7971;SDS011;4031;49.758;6.120;2023-08-31T07:22:46;4.97;;;1.63;;
7971;SDS011;4031;49.758;6.120;2023-08-31T07:25:12;2.90;;;1.57;;
7971;SDS011;4031;49.758;6.120;2023-08-31T07:27:38;3.20;;;1.90;;
7971;SDS011;4031;49.758;6.120;2023-08-31T07:30:04;2.33;;;2.13;;
7971;SDS011;4031;49.758;6.120;2023-08-31T07:32:31;2.43;;;2.00;;
7971;SDS011;4031;49.758;6.120;2023-08-31T07:34:57;1.73;;;1.50;;
7971;SDS011;4031;49.758;6.120;2023-08-31T07:37:23;4.40;;;2.00;;
7971;SDS011;4031;49.758;6.120;2023-08-31T07:39:49;3.07;;;1.60;;
7971;SDS011;4031;49.758;6.120;2023-08-31T07:42:15;2.10;;;1.77;;
7971;SDS011;4031;49.758;6.120;2023-08-31T07:44:40;3.50;;;1.90;;
7971;SDS011;4031;49.758;6.120;2023-08-31T07:47:07;3.87;;;1.80;;
7971;SDS011;4031;49.758;6.120;2023-08-31T07:49:33;4.60;;;1.97;;
7971;SDS011;4031;49.758;6.120;2023-08-31T07:51:58;3.67;;;1.50;;
7971;SDS011;4031;49.758;6.120;2023-08-31T07:54:24;4.00;;;1.63;;
7971;SDS011;4031;49.758;6.120;2023-08-31T07:56:51;2.13;;;1.60;;
7971;SDS011;4031;49.758;6.120;2023-08-31T07:59:17;2.70;;;1.40;;
7971;SDS011;4031;49.758;6.120;2023-08-31T08:01:43;3.87;;;2.20;;
7971;SDS011;4031;49.758;6.120;2023-08-31T08:04:10;2.43;;;1.87;;
7971;SDS011;4031;49.758;6.120;2023-08-31T08:06:36;3.50;;;2.17;;
7971;SDS011;4031;49.758;6.120;2023-08-31T08:09:03;6.20;;;2.00;;
7971;SDS011;4031;49.758;6.120;2023-08-31T08:11:29;2.30;;;1.83;;
7971;SDS011;4031;49.758;6.120;2023-08-31T08:13:55;2.43;;;2.17;;
7971;SDS011;4031;49.758;6.120;2023-08-31T08:16:21;7.80;;;1.73;;
7971;SDS011;4031;49.758;6.120;2023-08-31T08:18:47;4.50;;;1.83;;
7971;SDS011;4031;49.758;6.120;2023-08-31T08:21:13;3.70;;;1.70;;
7971;SDS011;4031;49.758;6.120;2023-08-31T08:23:38;6.57;;;2.20;;
7971;SDS011;4031;49.758;6.120;2023-08-31T08:26:04;3.53;;;1.77;;
7971;SDS011;4031;49.758;6.120;2023-08-31T08:28:30;2.57;;;1.40;;
7971;SDS011;4031;49.758;6.120;2023-08-31T08:30:57;4.53;;;1.87;;
7971;SDS011;4031;49.758;6.120;2023-08-31T08:33:31;2.50;;;1.57;;
7971;SDS011;4031;49.758;6.120;2023-08-31T08:35:57;3.60;;;1.50;;
7971;SDS011;4031;49.758;6.120;2023-08-31T08:38:23;2.60;;;1.80;;
7971;SDS011;4031;49.758;6.120;2023-08-31T08:40:49;4.60;;;1.53;;
7971;SDS011;4031;49.758;6.120;2023-08-31T08:43:15;2.60;;;1.50;;
7971;SDS011;4031;49.758;6.120;2023-08-31T08:45:54;4.20;;;1.57;;
7971;SDS011;4031;49.758;6.120;2023-08-31T08:48:25;2.27;;;1.27;;
7971;SDS011;4031;49.758;6.120;2023-08-31T08:50:51;3.13;;;1.53;;
7971;SDS011;4031;49.758;6.120;2023-08-31T08:53:19;2.17;;;1.30;;
7971;SDS011;4031;49.758;6.120;2023-08-31T08:55:45;2.20;;;0.90;;
7971;SDS011;4031;49.758;6.120;2023-08-31T08:58:10;3.50;;;1.47;;
7971;SDS011;4031;49.758;6.120;2023-08-31T09:00:36;2.33;;;1.63;;
7971;SDS011;4031;49.758;6.120;2023-08-31T09:03:02;2.20;;;1.47;;
7971;SDS011;4031;49.758;6.120;2023-08-31T09:05:30;4.50;;;1.53;;
7971;SDS011;4031;49.758;6.120;2023-08-31T09:08:01;3.53;;;1.30;;
7971;SDS011;4031;49.758;6.120;2023-08-31T09:10:40;3.43;;;1.33;;
7971;SDS011;4031;49.758;6.120;2023-08-31T09:13:10;2.53;;;1.30;;
7971;SDS011;4031;49.758;6.120;2023-08-31T09:15:42;3.73;;;1.40;;
7971;SDS011;4031;49.758;6.120;2023-08-31T09:18:16;1.90;;;1.10;;
7971;SDS011;4031;49.758;6.120;2023-08-31T09:20:57;2.53;;;1.20;;
7971;SDS011;4031;49.758;6.120;2023-08-31T09:23:23;4.20;;;1.40;;
7971;SDS011;4031;49.758;6.120;2023-08-31T09:25:50;0.90;;;0.87;;
7971;SDS011;4031;49.758;6.120;2023-08-31T09:28:22;1.70;;;1.50;;
7971;SDS011;4031;49.758;6.120;2023-08-31T09:31:03;2.77;;;1.67;;
7971;SDS011;4031;49.758;6.120;2023-08-31T09:33:34;2.47;;;1.07;;
7971;SDS011;4031;49.758;6.120;2023-08-31T09:36:01;1.10;;;1.00;;
7971;SDS011;4031;49.758;6.120;2023-08-31T09:38:29;4.37;;;1.27;;
7971;SDS011;4031;49.758;6.120;2023-08-31T09:41:04;1.77;;;1.00;;
7971;SDS011;4031;49.758;6.120;2023-08-31T09:43:31;3.80;;;1.27;;
7971;SDS011;4031;49.758;6.120;2023-08-31T09:45:57;5.93;;;1.90;;
7971;SDS011;4031;49.758;6.120;2023-08-31T09:48:24;2.30;;;1.20;;
7971;SDS011;4031;49.758;6.120;2023-08-31T09:50:52;2.33;;;1.70;;
7971;SDS011;4031;49.758;6.120;2023-08-31T09:53:20;2.07;;;1.40;;
7971;SDS011;4031;49.758;6.120;2023-08-31T09:55:46;5.40;;;1.63;;
7971;SDS011;4031;49.758;6.120;2023-08-31T09:58:16;4.00;;;1.60;;
7971;SDS011;4031;49.758;6.120;2023-08-31T10:00:51;2.90;;;1.20;;
7971;SDS011;4031;49.758;6.120;2023-08-31T10:03:18;1.40;;;1.30;;
7971;SDS011;4031;49.758;6.120;2023-08-31T10:05:47;4.83;;;1.30;;
7971;SDS011;4031;49.758;6.120;2023-08-31T10:08:14;5.03;;;1.70;;
7971;SDS011;4031;49.758;6.120;2023-08-31T10:10:41;1.33;;;1.23;;
7971;SDS011;4031;49.758;6.120;2023-08-31T10:13:07;1.77;;;1.43;;
7971;SDS011;4031;49.758;6.120;2023-08-31T10:15:34;4.10;;;1.57;;
7971;SDS011;4031;49.758;6.120;2023-08-31T10:18:01;2.43;;;1.60;;
7971;SDS011;4031;49.758;6.120;2023-08-31T10:20:29;1.87;;;1.40;;
7971;SDS011;4031;49.758;6.120;2023-08-31T10:23:02;2.33;;;1.30;;
7971;SDS011;4031;49.758;6.120;2023-08-31T10:28:44;4.20;;;1.43;;
7971;SDS011;4031;49.758;6.120;2023-08-31T10:31:08;2.73;;;1.10;;
7971;SDS011;4031;49.758;6.120;2023-08-31T10:33:45;1.90;;;1.27;;
7971;SDS011;4031;49.758;6.120;2023-08-31T10:36:16;4.20;;;1.20;;
7971;SDS011;4031;49.758;6.120;2023-08-31T10:38:47;1.50;;;1.00;;
7971;SDS011;4031;49.758;6.120;2023-08-31T10:41:22;1.93;;;1.37;;
7971;SDS011;4031;49.758;6.120;2023-08-31T10:43:53;3.00;;;1.17;;
7971;SDS011;4031;49.758;6.120;2023-08-31T10:46:30;3.90;;;1.10;;
7971;SDS011;4031;49.758;6.120;2023-08-31T10:48:58;1.63;;;1.40;;
7971;SDS011;4031;49.758;6.120;2023-08-31T10:51:33;2.10;;;1.10;;
7971;SDS011;4031;49.758;6.120;2023-08-31T10:54:09;3.90;;;1.27;;
7971;SDS011;4031;49.758;6.120;2023-08-31T10:56:42;2.80;;;1.30;;
7971;SDS011;4031;49.758;6.120;2023-08-31T10:59:16;2.33;;;1.30;;
7971;SDS011;4031;49.758;6.120;2023-08-31T11:01:58;3.80;;;1.43;;
7971;SDS011;4031;49.758;6.120;2023-08-31T11:04:29;1.57;;;1.10;;
7971;SDS011;4031;49.758;6.120;2023-08-31T11:07:15;4.47;;;1.20;;
7971;SDS011;4031;49.758;6.120;2023-08-31T11:09:48;3.27;;;1.40;;
7971;SDS011;4031;49.758;6.120;2023-08-31T11:12:14;6.13;;;1.67;;
7971;SDS011;4031;49.758;6.120;2023-08-31T11:14:40;3.93;;;1.53;;
7971;SDS011;4031;49.758;6.120;2023-08-31T11:17:06;4.73;;;1.20;;
7971;SDS011;4031;49.758;6.120;2023-08-31T11:19:32;1.47;;;1.20;;
7971;SDS011;4031;49.758;6.120;2023-08-31T11:22:00;1.63;;;1.10;;
7971;SDS011;4031;49.758;6.120;2023-08-31T11:24:28;3.33;;;1.50;;
7971;SDS011;4031;49.758;6.120;2023-08-31T11:26:57;3.00;;;1.37;;
7971;SDS011;4031;49.758;6.120;2023-08-31T11:29:23;1.57;;;1.10;;
7971;SDS011;4031;49.758;6.120;2023-08-31T11:31:49;1.43;;;1.33;;
7971;SDS011;4031;49.758;6.120;2023-08-31T11:34:15;7.17;;;1.87;;
7971;SDS011;4031;49.758;6.120;2023-08-31T11:36:43;6.00;;;1.77;;
7971;SDS011;4031;49.758;6.120;2023-08-31T11:39:14;2.60;;;1.37;;
7971;SDS011;4031;49.758;6.120;2023-08-31T11:41:42;3.70;;;1.57;;
7971;SDS011;4031;49.758;6.120;2023-08-31T11:44:12;1.90;;;1.40;;
7971;SDS011;4031;49.758;6.120;2023-08-31T11:46:43;3.60;;;1.20;;
7971;SDS011;4031;49.758;6.120;2023-08-31T11:49:13;2.83;;;1.23;;
7971;SDS011;4031;49.758;6.120;2023-08-31T11:51:39;2.13;;;1.50;;
7971;SDS011;4031;49.758;6.120;2023-08-31T11:54:06;2.70;;;1.10;;
7971;SDS011;4031;49.758;6.120;2023-08-31T11:56:38;1.70;;;1.50;;
7971;SDS011;4031;49.758;6.120;2023-08-31T11:59:17;2.73;;;1.87;;
7971;SDS011;4031;49.758;6.120;2023-08-31T12:01:44;3.80;;;1.70;;
7971;SDS011;4031;49.758;6.120;2023-08-31T12:04:19;2.00;;;1.43;;
7971;SDS011;4031;49.758;6.120;2023-08-31T12:06:47;5.83;;;1.70;;
7971;SDS011;4031;49.758;6.120;2023-08-31T12:09:16;2.10;;;1.30;;
7971;SDS011;4031;49.758;6.120;2023-08-31T12:11:49;2.40;;;1.47;;
7971;SDS011;4031;49.758;6.120;2023-08-31T12:14:19;2.90;;;1.33;;
7971;SDS011;4031;49.758;6.120;2023-08-31T12:16:47;5.93;;;1.77;;
7971;SDS011;4031;49.758;6.120;2023-08-31T12:19:13;4.10;;;1.67;;
7971;SDS011;4031;49.758;6.120;2023-08-31T12:21:39;5.50;;;1.60;;
7971;SDS011;4031;49.758;6.120;2023-08-31T12:24:08;4.20;;;1.60;;
7971;SDS011;4031;49.758;6.120;2023-08-31T12:26:34;6.93;;;1.57;;
7971;SDS011;4031;49.758;6.120;2023-08-31T12:29:00;4.87;;;1.90;;
7971;SDS011;4031;49.758;6.120;2023-08-31T12:31:26;6.97;;;1.97;;
7971;SDS011;4031;49.758;6.120;2023-08-31T12:33:52;2.10;;;1.13;;
7971;SDS011;4031;49.758;6.120;2023-08-31T12:36:17;5.17;;;1.80;;
7971;SDS011;4031;49.758;6.120;2023-08-31T12:38:43;4.00;;;1.80;;
7971;SDS011;4031;49.758;6.120;2023-08-31T12:41:09;6.30;;;1.40;;
7971;SDS011;4031;49.758;6.120;2023-08-31T12:43:35;2.07;;;1.40;;
7971;SDS011;4031;49.758;6.120;2023-08-31T12:46:01;3.87;;;1.60;;
7971;SDS011;4031;49.758;6.120;2023-08-31T12:48:27;3.70;;;1.67;;
7971;SDS011;4031;49.758;6.120;2023-08-31T12:50:53;2.40;;;1.40;;
7971;SDS011;4031;49.758;6.120;2023-08-31T12:53:22;4.23;;;1.50;;
7971;SDS011;4031;49.758;6.120;2023-08-31T12:55:48;3.00;;;1.53;;
7971;SDS011;4031;49.758;6.120;2023-08-31T12:58:15;4.70;;;1.70;;
7971;SDS011;4031;49.758;6.120;2023-08-31T13:00:41;2.13;;;1.33;;
7971;SDS011;4031;49.758;6.120;2023-08-31T13:03:08;4.87;;;1.37;;
7971;SDS011;4031;49.758;6.120;2023-08-31T13:05:34;3.53;;;1.40;;
7971;SDS011;4031;49.758;6.120;2023-08-31T13:08:04;2.63;;;1.33;;
7971;SDS011;4031;49.758;6.120;2023-08-31T13:10:31;6.50;;;1.77;;
7971;SDS011;4031;49.758;6.120;2023-08-31T13:12:57;2.00;;;1.23;;
7971;SDS011;4031;49.758;6.120;2023-08-31T13:15:23;6.20;;;2.03;;
7971;SDS011;4031;49.758;6.120;2023-08-31T13:17:48;4.27;;;1.80;;
7971;SDS011;4031;49.758;6.120;2023-08-31T13:20:14;3.13;;;1.70;;
7971;SDS011;4031;49.758;6.120;2023-08-31T13:22:40;3.50;;;1.80;;
7971;SDS011;4031;49.758;6.120;2023-08-31T13:25:06;3.43;;;1.47;;
7971;SDS011;4031;49.758;6.120;2023-08-31T13:27:32;5.27;;;1.83;;
7971;SDS011;4031;49.758;6.120;2023-08-31T13:30:00;3.57;;;1.73;;
7971;SDS011;4031;49.758;6.120;2023-08-31T13:32:30;1.73;;;1.53;;
7971;SDS011;4031;49.758;6.120;2023-08-31T13:34:57;6.63;;;1.77;;
7971;SDS011;4031;49.758;6.120;2023-08-31T13:37:23;3.23;;;1.70;;
7971;SDS011;4031;49.758;6.120;2023-08-31T13:39:49;5.10;;;1.80;;
7971;SDS011;4031;49.758;6.120;2023-08-31T13:42:21;2.50;;;2.30;;
7971;SDS011;4031;49.758;6.120;2023-08-31T13:44:47;4.03;;;1.80;;
7971;SDS011;4031;49.758;6.120;2023-08-31T13:47:13;2.70;;;2.03;;
7971;SDS011;4031;49.758;6.120;2023-08-31T13:49:38;4.50;;;1.80;;
7971;SDS011;4031;49.758;6.120;2023-08-31T13:52:04;3.73;;;2.13;;
7971;SDS011;4031;49.758;6.120;2023-08-31T13:54:31;3.00;;;2.07;;
7971;SDS011;4031;49.758;6.120;2023-08-31T13:56:58;7.70;;;2.07;;
7971;SDS011;4031;49.758;6.120;2023-08-31T13:59:24;3.73;;;2.10;;
7971;SDS011;4031;49.758;6.120;2023-08-31T14:01:52;2.07;;;1.73;;
7971;SDS011;4031;49.758;6.120;2023-08-31T14:04:21;5.63;;;2.10;;
7971;SDS011;4031;49.758;6.120;2023-08-31T14:06:47;7.27;;;2.40;;
7971;SDS011;4031;49.758;6.120;2023-08-31T14:09:13;2.00;;;1.80;;
7971;SDS011;4031;49.758;6.120;2023-08-31T14:11:39;4.27;;;1.63;;
7971;SDS011;4031;49.758;6.120;2023-08-31T14:14:06;5.23;;;2.40;;
7971;SDS011;4031;49.758;6.120;2023-08-31T14:16:36;4.70;;;2.23;;
7971;SDS011;4031;49.758;6.120;2023-08-31T14:19:05;4.00;;;2.20;;
7971;SDS011;4031;49.758;6.120;2023-08-31T14:21:31;4.57;;;2.40;;
7971;SDS011;4031;49.758;6.120;2023-08-31T14:23:57;2.83;;;2.10;;
7971;SDS011;4031;49.758;6.120;2023-08-31T14:26:23;4.47;;;2.30;;
7971;SDS011;4031;49.758;6.120;2023-08-31T14:28:50;4.97;;;2.00;;
7971;SDS011;4031;49.758;6.120;2023-08-31T14:31:17;5.57;;;2.23;;
7971;SDS011;4031;49.758;6.120;2023-08-31T14:33:43;3.17;;;2.83;;
7971;SDS011;4031;49.758;6.120;2023-08-31T14:36:09;4.00;;;2.63;;
7971;SDS011;4031;49.758;6.120;2023-08-31T14:38:36;4.87;;;2.40;;
7971;SDS011;4031;49.758;6.120;2023-08-31T14:41:01;4.57;;;2.13;;
7971;SDS011;4031;49.758;6.120;2023-08-31T14:43:27;7.17;;;2.30;;
7971;SDS011;4031;49.758;6.120;2023-08-31T14:45:53;3.00;;;2.27;;
7971;SDS011;4031;49.758;6.120;2023-08-31T14:48:18;2.80;;;2.13;;
7971;SDS011;4031;49.758;6.120;2023-08-31T14:50:44;4.37;;;2.10;;
7971;SDS011;4031;49.758;6.120;2023-08-31T14:53:10;3.70;;;2.53;;
7971;SDS011;4031;49.758;6.120;2023-08-31T14:55:36;5.77;;;2.10;;
7971;SDS011;4031;49.758;6.120;2023-08-31T14:58:03;2.87;;;2.20;;
7971;SDS011;4031;49.758;6.120;2023-08-31T15:00:31;5.53;;;2.10;;
7971;SDS011;4031;49.758;6.120;2023-08-31T15:02:57;2.97;;;2.27;;
7971;SDS011;4031;49.758;6.120;2023-08-31T15:05:22;2.73;;;1.90;;
7971;SDS011;4031;49.758;6.120;2023-08-31T15:07:50;5.80;;;2.13;;
7971;SDS011;4031;49.758;6.120;2023-08-31T15:10:16;3.30;;;2.00;;
7971;SDS011;4031;49.758;6.120;2023-08-31T15:12:43;2.73;;;2.00;;
7971;SDS011;4031;49.758;6.120;2023-08-31T15:15:09;7.70;;;2.00;;
7971;SDS011;4031;49.758;6.120;2023-08-31T15:17:35;3.60;;;2.63;;
7971;SDS011;4031;49.758;6.120;2023-08-31T15:20:01;3.03;;;2.47;;
7971;SDS011;4031;49.758;6.120;2023-08-31T15:22:28;2.43;;;1.70;;
7971;SDS011;4031;49.758;6.120;2023-08-31T15:24:54;3.37;;;2.13;;
7971;SDS011;4031;49.758;6.120;2023-08-31T15:27:20;6.13;;;2.80;;
7971;SDS011;4031;49.758;6.120;2023-08-31T15:29:45;2.20;;;2.00;;